TimePDT,TemperatureF,Dew PointF,Humidity,Sea Level PressureIn,VisibilityMPH,Wind Direction,Wind SpeedMPH,Gust SpeedMPH,PrecipitationIn,Events,Conditions,WindDirDegrees,DateUTC
12:53 AM,28.0,21.0,75,30.43,10.0,Calm,Calm,-,N/A,,Clear,0,2012-10-26 07:53:00
1:53 AM,26.1,21.0,81,30.43,10.0,WNW,3.5,-,N/A,,Clear,300,2012-10-26 08:53:00
2:53 AM,21.0,17.1,85,30.43,10.0,Variable,5.8,-,N/A,,Clear,0,2012-10-26 09:53:00
3:53 AM,23.0,19.0,85,30.42,10.0,Calm,Calm,-,N/A,,Clear,0,2012-10-26 10:53:00
4:53 AM,21.9,18.0,85,30.44,10.0,Calm,Calm,-,N/A,,Clear,0,2012-10-26 11:53:00
6:53 AM,18.0,15.1,88,30.48,10.0,SW,3.5,-,N/A,,Clear,230,2012-10-26 13:53:00
8:53 AM,28.0,23.0,81,30.48,10.0,Calm,Calm,-,N/A,,Clear,0,2012-10-26 15:53:00
9:53 AM,37.0,24.1,59,30.44,10.0,Calm,Calm,-,N/A,,Clear,0,2012-10-26 16:53:00
10:53 AM,41.0,25.0,53,30.43,10.0,SSW,5.8,-,N/A,,Clear,200,2012-10-26 17:53:00
11:53 AM,45.0,23.0,42,30.41,10.0,SW,6.9,-,N/A,,Clear,220,2012-10-26 18:53:00
12:53 PM,48.9,23.0,36,30.36,10.0,SSW,10.4,-,N/A,,Clear,210,2012-10-26 19:53:00
1:53 PM,51.1,21.9,32,30.32,10.0,South,9.2,-,N/A,,Clear,180,2012-10-26 20:53:00
2:53 PM,54.0,21.9,29,30.29,10.0,South,6.9,-,N/A,,Clear,180,2012-10-26 21:53:00
3:53 PM,54.0,21.9,29,30.26,10.0,Calm,Calm,-,N/A,,Clear,0,2012-10-26 22:53:00
4:53 PM,54.0,21.9,29,30.25,10.0,South,5.8,-,N/A,,Clear,180,2012-10-26 23:53:00
5:53 PM,51.1,21.9,32,30.26,10.0,South,4.6,-,N/A,,Clear,190,2012-10-27 00:53:00
6:53 PM,44.1,27.0,51,30.29,10.0,Calm,Calm,-,N/A,,Clear,0,2012-10-27 01:53:00
7:53 PM,42.1,24.1,49,30.29,10.0,ENE,5.8,-,N/A,,Clear,60,2012-10-27 02:53:00
8:53 PM,34.0,21.0,59,30.28,10.0,WNW,3.5,-,N/A,,Clear,290,2012-10-27 03:53:00
9:53 PM,33.1,19.9,59,30.27,10.0,SE,5.8,-,N/A,,Clear,130,2012-10-27 04:53:00
10:53 PM,30.0,21.0,69,30.26,10.0,ESE,3.5,-,N/A,,Clear,110,2012-10-27 05:53:00
11:53 PM,30.0,21.9,72,30.25,10.0,Calm,Calm,-,N/A,,Clear,0,2012-10-27 06:53:00